Time;durP1;ratioP1;P1;durP2;ratioP2;P2;SDS_P1;SDS_P2;PMS_P1;PMS_P2;Temp;Humidity;BMP_temperature;BMP_pressure;BME280_temperature;BME280_humidity;BME280_pressure;Samples;Min_cycle;Max_cycle;Signal;HPM_P1;HPM_P2
2023/04/24 00:01:17;;;;;;;;;;;;;;;;;;5095275;28;19959;-68
2023/04/24 00:03:43;;;;;;;;;;;;;;;;;;5095089;28;19979;-67
2023/04/24 00:06:09;;;;;;;;;;;;;;;;;;5094844;28;20038;-68
2023/04/24 00:08:34;;;;;;;;;;;;;;;;;;5095096;28;19961;-68
2023/04/24 00:11:00;;;;;;;;;;;;;;;;;;5095050;28;20413;-68
2023/04/24 00:13:28;;;;;;;;;;;;;;;;;;5094720;28;19998;-68
2023/04/24 00:15:54;;;;;;;;;;;;;;;;;;5094682;28;20001;-68
2023/04/24 00:18:20;;;;;;;;;;;;;;;;;;5095233;28;20403;-68
2023/04/24 00:20:46;;;;;;;;;;;;;;;;;;5094882;28;19955;-68
2023/04/24 00:23:12;;;;;;;;;;;;;;;;;;5094542;28;20345;-68
2023/04/24 00:25:39;;;;;;;;;;;;;;;;;;5095055;28;19962;-68
2023/04/24 00:28:05;;;;;;;;;;;;;;;;;;5095033;28;19959;-68
2023/04/24 00:30:31;;;;;;;;;;;;;;;;;;5094383;28;20120;-67
2023/04/24 00:32:57;;;;;;;;;;;;;;;;;;5094671;28;20446;-68
2023/04/24 00:35:23;;;;;;;;;;;;;;;;;;5094651;28;19955;-68
2023/04/24 00:37:49;;;;;;;;;;;;;;;;;;5093357;28;20415;-68
2023/04/24 00:40:15;;;;;;;;;;;;;;;;;;5094094;28;20012;-68
2023/04/24 00:42:41;;;;;;;;;;;;;;;;;;5094528;28;19959;-68
2023/04/24 00:45:07;;;;;;;;;;;;;;;;;;5094401;28;20459;-67
2023/04/24 00:47:33;;;;;;;;;;;;;;;;;;5094159;28;19963;-68
2023/04/24 00:49:59;;;;;;;;;;;;;;;;;;5094404;28;19959;-68
2023/04/24 00:52:25;;;;;;;;;;;;;;;;;;5094639;28;19998;-68
2023/04/24 00:54:51;;;;;;;;;;;;;;;;;;5094036;28;19956;-68
2023/04/24 00:57:17;;;;;;;;;;;;;;;;;;5094322;28;20028;-68
2023/04/24 00:59:43;;;;;;;;;;;;;;;;;;5093942;28;19955;-68
2023/04/24 01:02:09;;;;;;;;;;;;;;;;;;5093987;28;20450;-68
2023/04/24 01:04:35;;;;;;;;;;;;;;;;;;5093841;28;19983;-68
2023/04/24 01:07:00;;;;;;;;;;;;;;;;;;5094167;28;20021;-68
2023/04/24 01:09:26;;;;;;;;;;;;;;;;;;5093873;28;20411;-68
2023/04/24 01:11:52;;;;;;;;;;;;;;;;;;5093852;28;20472;-68
2023/04/24 01:14:18;;;;;;;;;;;;;;;;;;5093838;28;19962;-68
2023/04/24 01:16:44;;;;;;;;;;;;;;;;;;5094353;28;20382;-68
2023/04/24 01:19:10;;;;;;;;;;;;;;;;;;5093757;28;19994;-68
2023/04/24 01:21:37;;;;;;;;;;;;;;;;;;5093765;28;20436;-68
2023/04/24 01:24:02;;;;;;;;;;;;;;;;;;5094197;28;20045;-68
2023/04/24 01:26:28;;;;;;;;;;;;;;;;;;5094556;28;20404;-68
2023/04/24 01:28:54;;;;;;;;;;;;;;;;;;5093695;28;19955;-68
2023/04/24 01:31:20;;;;;;;;;;;;;;;;;;5093876;28;20180;-67
2023/04/24 01:33:46;;;;;;;;;;;;;;;;;;5093617;28;20024;-68
2023/04/24 01:36:12;;;;;;;;;;;;;;;;;;5093895;28;19955;-67
2023/04/24 01:38:38;;;;;;;;;;;;;;;;;;5093567;28;19978;-68
2023/04/24 01:41:04;;;;;;;;;;;;;;;;;;5093681;28;19992;-68
2023/04/24 01:43:29;;;;;;;;;;;;;;;;;;5093754;28;19975;-68
2023/04/24 01:45:55;;;;;;;;;;;;;;;;;;5093813;28;20400;-67
2023/04/24 01:48:21;;;;;;;;;;;;;;;;;;5094953;28;19987;-67
2023/04/24 01:50:47;;;;;;;;;;;;;;;;;;5097501;28;20016;-68
2023/04/24 01:53:13;;;;;;;;;;;;;;;;;;5097723;28;19955;-68
2023/04/24 01:55:39;;;;;;;;;;;;;;;;;;5097417;28;19960;-67
2023/04/24 01:58:05;;;;;;;;;;;;;;;;;;5097366;28;19955;-68
2023/04/24 02:00:31;;;;;;;;;;;;;;;;;;5097337;28;20414;-67
2023/04/24 02:02:57;;;;;;;;;;;;;;;;;;5097580;28;19963;-68
2023/04/24 02:05:23;;;;;;;;;;;;;;;;;;5097130;28;20363;-68
2023/04/24 02:07:48;;;;;;;;;;;;;;;;;;5097190;28;19956;-68
2023/04/24 02:10:14;;;;;;;;;;;;;;;;;;5097398;28;19959;-68
2023/04/24 02:12:40;;;;;;;;;;;;;;;;;;5097071;28;20042;-68
2023/04/24 02:15:06;;;;;;;;;;;;;;;;;;5097256;28;19966;-67
2023/04/24 02:17:32;;;;;;;;;;;;;;;;;;5096965;28;19955;-68
2023/04/24 02:19:58;;;;;;;;;;;;;;;;;;5096899;28;20025;-67
2023/04/24 02:22:24;;;;;;;;;;;;;;;;;;5096894;28;19956;-68
2023/04/24 02:24:50;;;;;;;;;;;;;;;;;;5096775;28;20074;-68
2023/04/24 02:27:16;;;;;;;;;;;;;;;;;;5097123;28;19956;-67
2023/04/24 02:29:41;;;;;;;;;;;;;;;;;;5096673;28;20351;-68
2023/04/24 02:32:11;;;;;;;;;;;;;;;;;;5096736;28;19994;-68
2023/04/24 02:34:37;;;;;;;;;;;;;;;;;;5096614;28;19959;-68
2023/04/24 02:37:03;;;;;;;;;;;;;;;;;;5096605;28;20475;-68
2023/04/24 02:39:29;;;;;;;;;;;;;;;;;;5096827;28;19955;-68
2023/04/24 02:41:55;;;;;;;;;;;;;;;;;;5096375;28;20490;-68
2023/04/24 02:44:22;;;;;;;;;;;;;;;;;;5096391;28;19975;-69
2023/04/24 02:46:48;;;;;;;;;;;;;;;;;;5096622;28;20331;-68
2023/04/24 02:49:14;;;;;;;;;;;;;;;;;;5097223;28;19959;-68
2023/04/24 02:51:41;;;;;;;;;;;;;;;;;;5096286;28;19959;-67
2023/04/24 02:54:06;;;;;;;;;;;;;;;;;;5096297;28;19986;-68
2023/04/24 02:56:32;;;;;;;;;;;;;;;;;;5096257;28;20003;-68
2023/04/24 02:58:58;;;;;;;;;;;;;;;;;;5096478;28;20044;-68
2023/04/24 03:01:24;;;;;;;;;;;;;;;;;;5095058;28;19955;-67
2023/04/24 03:03:50;;;;;;;;;;;;;;;;;;5094752;28;20507;-68
2023/04/24 03:06:16;;;;;;;;;;;;;;;;;;5096623;28;19955;-68
2023/04/24 03:08:42;;;;;;;;;;;;;;;;;;5096322;28;19955;-68
2023/04/24 03:11:08;;;;;;;;;;;;;;;;;;5095938;28;20326;-67
2023/04/24 03:13:34;;;;;;;;;;;;;;;;;;5096182;28;20002;-68
2023/04/24 03:16:00;;;;;;;;;;;;;;;;;;5096115;28;19955;-68
2023/04/24 03:18:26;;;;;;;;;;;;;;;;;;5095818;28;20434;-68
2023/04/24 03:20:52;;;;;;;;;;;;;;;;;;5096038;28;19955;-68
2023/04/24 03:23:18;;;;;;;;;;;;;;;;;;5095627;28;20415;-68
2023/04/24 03:25:44;;;;;;;;;;;;;;;;;;5096207;28;20376;-68
2023/04/24 03:28:10;;;;;;;;;;;;;;;;;;5095585;28;20361;-68
2023/04/24 03:30:36;;;;;;;;;;;;;;;;;;5095598;28;19994;-67
2023/04/24 03:33:01;;;;;;;;;;;;;;;;;;5095522;28;20000;-68
2023/04/24 03:35:27;;;;;;;;;;;;;;;;;;5096034;28;19959;-68
2023/04/24 03:37:53;;;;;;;;;;;;;;;;;;5095375;28;19955;-68
2023/04/24 03:40:19;;;;;;;;;;;;;;;;;;5095456;28;19962;-68
2023/04/24 03:42:45;;;;;;;;;;;;;;;;;;5095989;28;20514;-68
2023/04/24 03:45:11;;;;;;;;;;;;;;;;;;5095504;28;20081;-68
2023/04/24 03:47:37;;;;;;;;;;;;;;;;;;5095273;28;19959;-68
2023/04/24 03:50:03;;;;;;;;;;;;;;;;;;5095231;28;19955;-68
2023/04/24 03:52:28;;;;;;;;;;;;;;;;;;5095487;28;19959;-67
2023/04/24 03:54:55;;;;;;;;;;;;;;;;;;5095144;28;20411;-67
2023/04/24 03:57:21;;;;;;;;;;;;;;;;;;5095111;28;19959;-67
2023/04/24 03:59:47;;;;;;;;;;;;;;;;;;5095312;28;19966;-68
2023/04/24 04:02:13;;;;;;;;;;;;;;;;;;5094965;28;19985;-68
2023/04/24 04:04:40;;;;;;;;;;;;;;;;;;5094866;28;20435;-68
2023/04/24 04:07:07;;;;;;;;;;;;;;;;;;5095246;28;20009;-67
2023/04/24 04:09:33;;;;;;;;;;;;;;;;;;5094785;28;20409;-67
2023/04/24 04:12:00;;;;;;;;;;;;;;;;;;5094554;28;19977;-68
2023/04/24 04:14:26;;;;;;;;;;;;;;;;;;5094769;28;19955;-67
2023/04/24 04:16:52;;;;;;;;;;;;;;;;;;5094720;28;19955;-68
2023/04/24 04:19:18;;;;;;;;;;;;;;;;;;5094941;28;19999;-68
2023/04/24 04:21:45;;;;;;;;;;;;;;;;;;5094926;28;19999;-68
2023/04/24 04:24:11;;;;;;;;;;;;;;;;;;5095035;28;20450;-68
2023/04/24 04:26:37;;;;;;;;;;;;;;;;;;5094819;28;19967;-68
2023/04/24 04:29:03;;;;;;;;;;;;;;;;;;5094395;28;19956;-68
2023/04/24 04:31:30;;;;;;;;;;;;;;;;;;5094453;28;20326;-68
2023/04/24 04:33:56;;;;;;;;;;;;;;;;;;5094429;28;20496;-68
2023/04/24 04:36:23;;;;;;;;;;;;;;;;;;5094369;28;19956;-68
2023/04/24 04:38:49;;;;;;;;;;;;;;;;;;5094574;28;19956;-68
2023/04/24 04:41:16;;;;;;;;;;;;;;;;;;5093865;28;19997;-68
2023/04/24 04:43:42;;;;;;;;;;;;;;;;;;5094405;28;19990;-68
2023/04/24 04:46:10;;;;;;;;;;;;;;;;;;5094509;28;19955;-68
2023/04/24 04:48:37;;;;;;;;;;;;;;;;;;5094452;28;20049;-67
2023/04/24 04:51:03;;;;;;;;;;;;;;;;;;5094076;28;20411;-68
2023/04/24 04:53:29;;;;;;;;;;;;;;;;;;5094121;28;19955;-67
2023/04/24 04:55:55;;;;;;;;;;;;;;;;;;5094345;28;19962;-67
2023/04/24 04:58:21;;;;;;;;;;;;;;;;;;5094276;28;20407;-68
2023/04/24 05:00:47;;;;;;;;;;;;;;;;;;5094039;28;19962;-68
2023/04/24 05:03:13;;;;;;;;;;;;;;;;;;5094155;28;19962;-67
2023/04/24 05:05:40;;;;;;;;;;;;;;;;;;5093939;28;19959;-68
2023/04/24 05:08:06;;;;;;;;;;;;;;;;;;5093905;28;20300;-68
2023/04/24 05:10:32;;;;;;;;;;;;;;;;;;5094423;28;19961;-68
2023/04/24 05:12:58;;;;;;;;;;;;;;;;;;5094146;28;19966;-68
2023/04/24 05:15:24;;;;;;;;;;;;;;;;;;5094196;28;20449;-67
2023/04/24 05:17:50;;;;;;;;;;;;;;;;;;5093760;28;19963;-67
2023/04/24 05:20:16;;;;;;;;;;;;;;;;;;5093789;28;19955;-68
2023/04/24 05:22:42;;;;;;;;;;;;;;;;;;5094318;28;20002;-68
2023/04/24 05:25:08;;;;;;;;;;;;;;;;;;5097714;28;20014;-67
2023/04/24 05:27:34;;;;;;;;;;;;;;;;;;5098203;28;20359;-68
2023/04/24 05:30:00;;;;;;;;;;;;;;;;;;5098123;28;20022;-68
2023/04/24 05:32:26;;;;;;;;;;;;;;;;;;5098153;28;19987;-68
2023/04/24 05:34:52;;;;;;;;;;;;;;;;;;5097799;28;20556;-68
2023/04/24 05:37:18;;;;;;;;;;;;;;;;;;5098286;28;20009;-68
2023/04/24 05:39:44;;;;;;;;;;;;;;;;;;5097991;28;19955;-68
2023/04/24 05:42:10;;;;;;;;;;;;;;;;;;5097221;28;20105;-68
2023/04/24 05:44:36;;;;;;;;;;;;;;;;;;5097818;28;20372;-68
2023/04/24 05:47:02;;;;;;;;;;;;;;;;;;5097856;28;19962;-68
2023/04/24 05:49:28;;;;;;;;;;;;;;;;;;5097562;28;20042;-68
2023/04/24 05:51:54;;;;;;;;;;;;;;;;;;5097790;28;20067;-68
2023/04/24 05:54:20;;;;;;;;;;;;;;;;;;5097458;28;20322;-68
2023/04/24 05:56:46;;;;;;;;;;;;;;;;;;5097432;28;19962;-67
2023/04/24 05:59:12;;;;;;;;;;;;;;;;;;5097639;28;19955;-68
2023/04/24 06:01:38;;;;;;;;;;;;;;;;;;5097346;28;19967;-67
2023/04/24 06:04:03;;;;;;;;;;;;;;;;;;5097777;28;20419;-67
2023/04/24 06:06:30;;;;;;;;;;;;;;;;;;5097537;28;19989;-68
2023/04/24 06:08:56;;;;;;;;;;;;;;;;;;5097190;28;19956;-68
2023/04/24 06:11:22;;;;;;;;;;;;;;;;;;5097388;28;19962;-68
2023/04/24 06:13:48;;;;;;;;;;;;;;;;;;5097025;28;20338;-67
2023/04/24 06:16:14;;;;;;;;;;;;;;;;;;5097052;28;19955;-68
2023/04/24 06:18:40;;;;;;;;;;;;;;;;;;5097576;28;19991;-68
2023/04/24 06:21:06;;;;;;;;;;;;;;;;;;5096906;28;20412;-68
2023/04/24 06:23:32;;;;;;;;;;;;;;;;;;5097399;28;19982;-68
2023/04/24 06:25:58;;;;;;;;;;;;;;;;;;5097156;28;19962;-68
2023/04/24 06:28:24;;;;;;;;;;;;;;;;;;5096861;28;19957;-68
2023/04/24 06:30:50;;;;;;;;;;;;;;;;;;5096838;28;20455;-68
2023/04/24 06:33:16;;;;;;;;;;;;;;;;;;5097009;28;19962;-68
2023/04/24 06:35:43;;;;;;;;;;;;;;;;;;5096602;28;20434;-68
2023/04/24 06:38:09;;;;;;;;;;;;;;;;;;5095094;28;19959;-68
2023/04/24 06:40:35;;;;;;;;;;;;;;;;;;5096370;28;19991;-68
2023/04/24 06:43:02;;;;;;;;;;;;;;;;;;5096530;28;20332;-68
2023/04/24 06:45:28;;;;;;;;;;;;;;;;;;5096386;28;19979;-68
2023/04/24 06:47:54;;;;;;;;;;;;;;;;;;5094903;28;20054;-68
2023/04/24 06:50:20;;;;;;;;;;;;;;;;;;5096696;28;19966;-68
2023/04/24 06:52:46;;;;;;;;;;;;;;;;;;5096623;28;19955;-68
2023/04/24 06:55:12;;;;;;;;;;;;;;;;;;5096312;28;19956;-68
2023/04/24 06:57:38;;;;;;;;;;;;;;;;;;5096242;28;20343;-68
2023/04/24 07:00:04;;;;;;;;;;;;;;;;;;5096769;28;19955;-68
2023/04/24 07:02:30;;;;;;;;;;;;;;;;;;5096470;28;20004;-68
2023/04/24 07:04:56;;;;;;;;;;;;;;;;;;5096058;28;19975;-68
2023/04/24 07:07:23;;;;;;;;;;;;;;;;;;5096064;28;20428;-68
2023/04/24 07:09:50;;;;;;;;;;;;;;;;;;5096605;28;19959;-68
2023/04/24 07:12:16;;;;;;;;;;;;;;;;;;5096248;28;20001;-68
2023/04/24 07:14:42;;;;;;;;;;;;;;;;;;5096482;28;19962;-68
2023/04/24 07:17:08;;;;;;;;;;;;;;;;;;5095881;28;19957;-68
2023/04/24 07:19:35;;;;;;;;;;;;;;;;;;5096057;28;19955;-68
2023/04/24 07:22:01;;;;;;;;;;;;;;;;;;5096023;28;19962;-68
2023/04/24 07:24:27;;;;;;;;;;;;;;;;;;5095647;28;19979;-68
2023/04/24 07:26:53;;;;;;;;;;;;;;;;;;5095697;28;20000;-68
2023/04/24 07:29:19;;;;;;;;;;;;;;;;;;5095540;28;19971;-68
2023/04/24 07:31:45;;;;;;;;;;;;;;;;;;5095578;28;20004;-68
2023/04/24 07:34:11;;;;;;;;;;;;;;;;;;5095807;28;20288;-68
2023/04/24 07:36:38;;;;;;;;;;;;;;;;;;5095494;28;19956;-68
2023/04/24 07:39:04;;;;;;;;;;;;;;;;;;5095450;28;19955;-68
2023/04/24 07:41:30;;;;;;;;;;;;;;;;;;5095237;28;19998;-68
2023/04/24 07:43:56;;;;;;;;;;;;;;;;;;5095588;28;19975;-68
2023/04/24 07:46:23;;;;;;;;;;;;;;;;;;5094728;28;19962;-68
2023/04/24 07:48:48;;;;;;;;;;;;;;;;;;5095537;28;20012;-68
2023/04/24 07:51:14;;;;;;;;;;;;;;;;;;5095246;28;19955;-68
2023/04/24 07:53:40;;;;;;;;;;;;;;;;;;5095158;28;20355;-68
2023/04/24 07:56:06;;;;;;;;;;;;;;;;;;5095112;28;19969;-68
2023/04/24 07:58:32;;;;;;;;;;;;;;;;;;5095375;28;19955;-68
2023/04/24 08:00:58;;;;;;;;;;;;;;;;;;5095007;28;19962;-68
2023/04/24 08:03:24;;;;;;;;;;;;;;;;;;5095467;28;20311;-69
2023/04/24 08:05:51;;;;;;;;;;;;;;;;;;5095187;28;19981;-68
2023/04/24 08:08:17;;;;;;;;;;;;;;;;;;5093386;28;19959;-68
2023/04/24 08:10:43;;;;;;;;;;;;;;;;;;5094831;28;20012;-68
2023/04/24 08:13:11;;;;;;;;;;;;;;;;;;5095373;28;19955;-68
2023/04/24 08:15:37;;;;;;;;;;;;;;;;;;5094803;28;20088;-68
2023/04/24 08:18:02;;;;;;;;;;;;;;;;;;5094713;28;19991;-68
2023/04/24 08:20:28;;;;;;;;;;;;;;;;;;5095741;28;19959;-68
2023/04/24 08:22:55;;;;;;;;;;;;;;;;;;5094886;28;19963;-68
2023/04/24 08:25:22;;;;;;;;;;;;;;;;;;5094592;28;19975;-68
2023/04/24 08:27:48;;;;;;;;;;;;;;;;;;5094816;28;19962;-69
2023/04/24 08:30:14;;;;;;;;;;;;;;;;;;5094380;28;19971;-68
2023/04/24 08:32:40;;;;;;;;;;;;;;;;;;5094446;28;19955;-69
2023/04/24 08:35:09;;;;;;;;;;;;;;;;;;5094508;28;19955;-69
2023/04/24 08:37:34;;;;;;;;;;;;;;;;;;5094653;28;19955;-68
2023/04/24 08:40:00;;;;;;;;;;;;;;;;;;5094370;28;19956;-68
2023/04/24 08:42:26;;;;;;;;;;;;;;;;;;5094200;28;20339;-69
2023/04/24 08:44:52;;;;;;;;;;;;;;;;;;5094495;28;19975;-69
2023/04/24 08:47:18;;;;;;;;;;;;;;;;;;5094254;28;20316;-71
2023/04/24 08:49:45;;;;;;;;;;;;;;;;;;5094482;28;20415;-71
2023/04/24 08:52:12;;;;;;;;;;;;;;;;;;5094419;28;19966;-70
2023/04/24 08:54:38;;;;;;;;;;;;;;;;;;5094066;28;19979;-70
2023/04/24 08:57:04;;;;;;;;;;;;;;;;;;5094274;28;20005;-70
2023/04/24 08:59:30;;;;;;;;;;;;;;;;;;5093532;28;20458;-67
2023/04/24 09:01:56;;;;;;;;;;;;;;;;;;5093994;28;19955;-67
2023/04/24 09:04:24;;;;;;;;;;;;;;;;;;5094154;28;19975;-67
2023/04/24 09:06:50;;;;;;;;;;;;;;;;;;5092660;28;19959;-67
2023/04/24 09:09:16;;;;;;;;;;;;;;;;;;5093969;28;20370;-69
2023/04/24 09:11:41;;;;;;;;;;;;;;;;;;5093897;28;19955;-68
2023/04/24 09:14:07;;;;;;;;;;;;;;;;;;5094070;28;19959;-68
2023/04/24 09:16:33;;;;;;;;;;;;;;;;;;5094068;28;20003;-68
2023/04/24 09:19:00;;;;;;;;;;;;;;;;;;5094018;28;19960;-68
2023/04/24 09:21:25;;;;;;;;;;;;;;;;;;5093712;28;19955;-68
2023/04/24 09:23:51;;;;;;;;;;;;;;;;;;5093805;28;19975;-68
2023/04/24 09:26:20;;;;;;;;;;;;;;;;;;5093537;28;20076;-69
2023/04/24 09:28:45;;;;;;;;;;;;;;;;;;5093773;28;20099;-68
2023/04/24 09:31:12;;;;;;;;;;;;;;;;;;5093614;28;20020;-68
2023/04/24 09:33:38;;;;;;;;;;;;;;;;;;5094088;28;19986;-68
2023/04/24 09:36:05;;;;;;;;;;;;;;;;;;5093542;28;20449;-68
2023/04/24 09:38:31;;;;;;;;;;;;;;;;;;5091819;28;20238;-68
2023/04/24 09:40:57;;;;;;;;;;;;;;;;;;5092304;28;20526;-68
2023/04/24 09:43:23;;;;;;;;;;;;;;;;;;5092425;28;19961;-69
2023/04/24 09:45:49;;;;;;;;;;;;;;;;;;5092491;28;19961;-68
2023/04/24 09:48:15;;;;;;;;;;;;;;;;;;5092746;28;20054;-69
2023/04/24 09:50:41;;;;;;;;;;;;;;;;;;5093074;28;19971;-68
2023/04/24 09:53:08;;;;;;;;;;;;;;;;;;5093559;28;20004;-68
2023/04/24 09:55:34;;;;;;;;;;;;;;;;;;5093774;28;19962;-69
2023/04/24 09:58:00;;;;;;;;;;;;;;;;;;5093653;28;19955;-68
2023/04/24 10:00:26;;;;;;;;;;;;;;;;;;5093653;28;19995;-68
2023/04/24 10:02:52;;;;;;;;;;;;;;;;;;5093979;28;20054;-68
2023/04/24 10:05:18;;;;;;;;;;;;;;;;;;5093571;28;20061;-68
2023/04/24 10:07:44;;;;;;;;;;;;;;;;;;5093348;28;19955;-68
2023/04/24 10:10:10;;;;;;;;;;;;;;;;;;5095993;28;19955;-68
2023/04/24 10:12:36;;;;;;;;;;;;;;;;;;5097085;28;20426;-67
2023/04/24 10:15:02;;;;;;;;;;;;;;;;;;5097298;28;19959;-68
2023/04/24 10:17:28;;;;;;;;;;;;;;;;;;5097338;28;19993;-68
2023/04/24 10:19:54;;;;;;;;;;;;;;;;;;5096958;28;20419;-68
2023/04/24 10:22:20;;;;;;;;;;;;;;;;;;5096915;28;19955;-68
2023/04/24 10:24:46;;;;;;;;;;;;;;;;;;5097615;28;20443;-69
2023/04/24 10:27:12;;;;;;;;;;;;;;;;;;5096799;28;19963;-68
2023/04/24 10:29:38;;;;;;;;;;;;;;;;;;5097063;28;20435;-68
2023/04/24 10:32:03;;;;;;;;;;;;;;;;;;5097296;28;19955;-68
2023/04/24 10:34:29;;;;;;;;;;;;;;;;;;5096662;28;19956;-68
2023/04/24 10:36:55;;;;;;;;;;;;;;;;;;5097184;28;19955;-68
2023/04/24 10:39:22;;;;;;;;;;;;;;;;;;5096838;28;20055;-68
2023/04/24 10:41:48;;;;;;;;;;;;;;;;;;5096388;28;20375;-68
2023/04/24 10:44:14;;;;;;;;;;;;;;;;;;5096945;28;19975;-68
2023/04/24 10:46:40;;;;;;;;;;;;;;;;;;5096467;28;19955;-68
2023/04/24 10:49:09;;;;;;;;;;;;;;;;;;5096699;28;19955;-68
2023/04/24 10:51:35;;;;;;;;;;;;;;;;;;5096407;28;20436;-68
2023/04/24 10:54:01;;;;;;;;;;;;;;;;;;5096846;28;20036;-68
2023/04/24 10:56:27;;;;;;;;;;;;;;;;;;5096237;28;19956;-68
2023/04/24 10:58:53;;;;;;;;;;;;;;;;;;5096270;28;19956;-68
2023/04/24 11:01:18;;;;;;;;;;;;;;;;;;5096191;28;19955;-68
2023/04/24 11:03:46;;;;;;;;;;;;;;;;;;5096280;28;20559;-68
2023/04/24 11:06:12;;;;;;;;;;;;;;;;;;5096365;28;20434;-68
2023/04/24 11:08:38;;;;;;;;;;;;;;;;;;5096329;28;19958;-68
2023/04/24 11:11:04;;;;;;;;;;;;;;;;;;5096576;28;20001;-68
2023/04/24 11:13:30;;;;;;;;;;;;;;;;;;5096186;28;19990;-68
2023/04/24 11:15:55;;;;;;;;;;;;;;;;;;5095887;28;19963;-68
2023/04/24 11:18:21;;;;;;;;;;;;;;;;;;5096395;28;19955;-68
2023/04/24 11:20:47;;;;;;;;;;;;;;;;;;5095259;28;19959;-68
2023/04/24 11:23:14;;;;;;;;;;;;;;;;;;5095702;28;19998;-68
2023/04/24 11:25:40;;;;;;;;;;;;;;;;;;5096528;28;19975;-68
2023/04/24 11:28:06;;;;;;;;;;;;;;;;;;5095703;28;19978;-68
2023/04/24 11:30:32;;;;;;;;;;;;;;;;;;5096105;28;20434;-68
2023/04/24 11:32:58;;;;;;;;;;;;;;;;;;5095571;28;19959;-68
2023/04/24 11:35:27;;;;;;;;;;;;;;;;;;5095513;28;20465;-68
2023/04/24 11:37:53;;;;;;;;;;;;;;;;;;5095844;28;20300;-68
2023/04/24 11:40:20;;;;;;;;;;;;;;;;;;5095203;28;19962;-68
2023/04/24 11:42:45;;;;;;;;;;;;;;;;;;5095707;28;20439;-68
2023/04/24 11:45:12;;;;;;;;;;;;;;;;;;5095247;28;20025;-68
2023/04/24 11:47:38;;;;;;;;;;;;;;;;;;5095248;28;19963;-68
2023/04/24 11:50:04;;;;;;;;;;;;;;;;;;5095501;28;20005;-68
2023/04/24 11:52:30;;;;;;;;;;;;;;;;;;5095493;28;20411;-68
2023/04/24 11:54:56;;;;;;;;;;;;;;;;;;5095153;28;19956;-68
2023/04/24 11:57:22;;;;;;;;;;;;;;;;;;5095657;28;19955;-68
2023/04/24 11:59:48;;;;;;;;;;;;;;;;;;5095379;28;20046;-68
2023/04/24 12:02:14;;;;;;;;;;;;;;;;;;5094992;28;20006;-68
2023/04/24 12:04:40;;;;;;;;;;;;;;;;;;5095453;28;19975;-68
2023/04/24 12:07:08;;;;;;;;;;;;;;;;;;5095230;28;20045;-69
2023/04/24 12:09:34;;;;;;;;;;;;;;;;;;5094886;28;19956;-68
2023/04/24 12:12:00;;;;;;;;;;;;;;;;;;5094890;28;19963;-68
2023/04/24 12:14:26;;;;;;;;;;;;;;;;;;5095098;28;19978;-68
2023/04/24 12:16:52;;;;;;;;;;;;;;;;;;5094755;28;20408;-68
2023/04/24 12:19:18;;;;;;;;;;;;;;;;;;5094962;28;19963;-68
2023/04/24 12:21:44;;;;;;;;;;;;;;;;;;5094676;28;20041;-67
2023/04/24 12:24:10;;;;;;;;;;;;;;;;;;5094543;28;20022;-68
2023/04/24 12:26:36;;;;;;;;;;;;;;;;;;5094554;28;20336;-68
2023/04/24 12:29:02;;;;;;;;;;;;;;;;;;5094964;28;20411;-68
2023/04/24 12:31:30;;;;;;;;;;;;;;;;;;5094724;28;19963;-68
2023/04/24 12:33:55;;;;;;;;;;;;;;;;;;5094340;28;19978;-68
2023/04/24 12:36:21;;;;;;;;;;;;;;;;;;5094949;28;20399;-68
2023/04/24 12:38:47;;;;;;;;;;;;;;;;;;5094593;28;20311;-68
2023/04/24 12:41:13;;;;;;;;;;;;;;;;;;5094383;28;19991;-68
2023/04/24 12:43:39;;;;;;;;;;;;;;;;;;5094224;28;19978;-68
2023/04/24 12:46:05;;;;;;;;;;;;;;;;;;5094810;28;20420;-68
2023/04/24 12:48:31;;;;;;;;;;;;;;;;;;5094205;28;19955;-68
2023/04/24 12:51:00;;;;;;;;;;;;;;;;;;5094473;28;20454;-68
2023/04/24 12:53:26;;;;;;;;;;;;;;;;;;5094168;28;19962;-68
2023/04/24 12:55:52;;;;;;;;;;;;;;;;;;5094038;28;20485;-68
2023/04/24 12:58:18;;;;;;;;;;;;;;;;;;5094061;28;20407;-68
2023/04/24 13:00:45;;;;;;;;;;;;;;;;;;5094561;28;19962;-68
2023/04/24 13:03:11;;;;;;;;;;;;;;;;;;5094005;28;19963;-68
2023/04/24 13:05:37;;;;;;;;;;;;;;;;;;5094117;28;20093;-68
2023/04/24 13:08:03;;;;;;;;;;;;;;;;;;5093874;28;20001;-68
2023/04/24 13:10:29;;;;;;;;;;;;;;;;;;5094180;28;19955;-68
2023/04/24 13:12:55;;;;;;;;;;;;;;;;;;5093870;28;20002;-68
2023/04/24 13:15:21;;;;;;;;;;;;;;;;;;5094134;28;20044;-68
2023/04/24 13:17:46;;;;;;;;;;;;;;;;;;5093836;28;19962;-68
2023/04/24 13:20:12;;;;;;;;;;;;;;;;;;5094581;28;20396;-68
2023/04/24 13:22:38;;;;;;;;;;;;;;;;;;5094018;28;19994;-68
2023/04/24 13:25:05;;;;;;;;;;;;;;;;;;5093678;28;20024;-68
2023/04/24 13:27:31;;;;;;;;;;;;;;;;;;5093811;28;19990;-68
2023/04/24 13:29:57;;;;;;;;;;;;;;;;;;5093892;28;19978;-68
2023/04/24 13:32:23;;;;;;;;;;;;;;;;;;5093917;28;20389;-68
2023/04/24 13:34:49;;;;;;;;;;;;;;;;;;5094211;28;19955;-68
2023/04/24 13:37:15;;;;;;;;;;;;;;;;;;5093642;28;19955;-68
2023/04/24 13:39:41;;;;;;;;;;;;;;;;;;5093867;28;19961;-68
2023/04/24 13:42:07;;;;;;;;;;;;;;;;;;5093156;28;19991;-69
2023/04/24 13:44:33;;;;;;;;;;;;;;;;;;5094653;28;20328;-68
2023/04/24 13:46:59;;;;;;;;;;;;;;;;;;5097595;28;19955;-68
2023/04/24 13:49:25;;;;;;;;;;;;;;;;;;5097885;28;19962;-68
2023/04/24 13:51:51;;;;;;;;;;;;;;;;;;5097553;28;20008;-68
2023/04/24 13:54:16;;;;;;;;;;;;;;;;;;5097724;28;20108;-68
2023/04/24 13:56:42;;;;;;;;;;;;;;;;;;5097489;28;20423;-68
2023/04/24 13:59:08;;;;;;;;;;;;;;;;;;5097942;28;20369;-69
2023/04/24 14:01:34;;;;;;;;;;;;;;;;;;5097613;28;19955;-68
2023/04/24 14:04:00;;;;;;;;;;;;;;;;;;5097214;28;20443;-68
2023/04/24 14:06:26;;;;;;;;;;;;;;;;;;5097265;28;19959;-68
2023/04/24 14:08:52;;;;;;;;;;;;;;;;;;5097219;28;20004;-68
2023/04/24 14:11:18;;;;;;;;;;;;;;;;;;5097757;28;20319;-68
2023/04/24 14:13:44;;;;;;;;;;;;;;;;;;5097398;28;19956;-68
2023/04/24 14:16:10;;;;;;;;;;;;;;;;;;5097078;28;19956;-68
2023/04/24 14:18:36;;;;;;;;;;;;;;;;;;5097324;28;19978;-68
2023/04/24 14:21:02;;;;;;;;;;;;;;;;;;5097327;28;20115;-68
2023/04/24 14:23:27;;;;;;;;;;;;;;;;;;5096911;28;19955;-68
2023/04/24 14:25:53;;;;;;;;;;;;;;;;;;5097443;28;19959;-68
2023/04/24 14:28:20;;;;;;;;;;;;;;;;;;5096833;28;19956;-68
2023/04/24 14:30:45;;;;;;;;;;;;;;;;;;5096992;28;19971;-68
2023/04/24 14:33:12;;;;;;;;;;;;;;;;;;5096989;28;19965;-68
2023/04/24 14:35:38;;;;;;;;;;;;;;;;;;5096692;28;19965;-68
2023/04/24 14:38:04;;;;;;;;;;;;;;;;;;5096653;28;20045;-68
2023/04/24 14:40:31;;;;;;;;;;;;;;;;;;5096836;28;20433;-68
2023/04/24 14:42:57;;;;;;;;;;;;;;;;;;5096814;28;19955;-68
2023/04/24 14:45:23;;;;;;;;;;;;;;;;;;5096758;28;19975;-68
2023/04/24 14:47:49;;;;;;;;;;;;;;;;;;5097245;28;20458;-68
2023/04/24 14:50:15;;;;;;;;;;;;;;;;;;5096392;28;19998;-68
2023/04/24 14:52:41;;;;;;;;;;;;;;;;;;5096376;28;20004;-68
2023/04/24 14:55:07;;;;;;;;;;;;;;;;;;5096212;28;19993;-68
2023/04/24 14:57:33;;;;;;;;;;;;;;;;;;5095366;28;19955;-68
2023/04/24 14:59:58;;;;;;;;;;;;;;;;;;5096267;28;19955;-68
2023/04/24 15:02:25;;;;;;;;;;;;;;;;;;5096406;28;20334;-68
2023/04/24 15:04:51;;;;;;;;;;;;;;;;;;5096076;28;19975;-68
2023/04/24 15:07:17;;;;;;;;;;;;;;;;;;5096323;28;19961;-68
2023/04/24 15:09:43;;;;;;;;;;;;;;;;;;5096072;28;19961;-68
2023/04/24 15:12:09;;;;;;;;;;;;;;;;;;5096568;28;20319;-68
2023/04/24 15:14:35;;;;;;;;;;;;;;;;;;5096220;28;19962;-68
2023/04/24 15:17:01;;;;;;;;;;;;;;;;;;5095756;28;19955;-68
2023/04/24 15:19:27;;;;;;;;;;;;;;;;;;5095730;28;19955;-68
2023/04/24 15:21:53;;;;;;;;;;;;;;;;;;5095959;28;19955;-69
2023/04/24 15:24:19;;;;;;;;;;;;;;;;;;5095683;28;19975;-68
2023/04/24 15:26:45;;;;;;;;;;;;;;;;;;5095770;28;19963;-68
2023/04/24 15:29:11;;;;;;;;;;;;;;;;;;5095815;28;19959;-68
2023/04/24 15:31:39;;;;;;;;;;;;;;;;;;5095646;28;19960;-68
2023/04/24 15:34:05;;;;;;;;;;;;;;;;;;5096135;28;19955;-68
2023/04/24 15:36:31;;;;;;;;;;;;;;;;;;5095476;28;20422;-68
2023/04/24 15:38:57;;;;;;;;;;;;;;;;;;5095491;28;19955;-68
2023/04/24 15:41:22;;;;;;;;;;;;;;;;;;5095500;28;20431;-68
2023/04/24 15:43:48;;;;;;;;;;;;;;;;;;5095573;28;19966;-68
2023/04/24 15:46:14;;;;;;;;;;;;;;;;;;5095257;28;19959;-68
2023/04/24 15:48:41;;;;;;;;;;;;;;;;;;5095306;28;19955;-68
2023/04/24 15:51:06;;;;;;;;;;;;;;;;;;5095276;28;20000;-68
2023/04/24 15:53:33;;;;;;;;;;;;;;;;;;5095486;28;20428;-68
2023/04/24 15:55:59;;;;;;;;;;;;;;;;;;5095144;28;19966;-68
2023/04/24 15:58:24;;;;;;;;;;;;;;;;;;5095373;28;19959;-68
2023/04/24 16:00:51;;;;;;;;;;;;;;;;;;5095299;28;19959;-68
2023/04/24 16:03:17;;;;;;;;;;;;;;;;;;5095889;28;20423;-68
2023/04/24 16:05:44;;;;;;;;;;;;;;;;;;5094913;28;20017;-68
2023/04/24 16:08:10;;;;;;;;;;;;;;;;;;5093591;28;19974;-68
2023/04/24 16:10:36;;;;;;;;;;;;;;;;;;5094856;28;19954;-68
2023/04/24 16:13:03;;;;;;;;;;;;;;;;;;5095084;28;19955;-68
2023/04/24 16:15:29;;;;;;;;;;;;;;;;;;5094822;28;20008;-68
2023/04/24 16:17:55;;;;;;;;;;;;;;;;;;5095003;28;19956;-69
2023/04/24 16:20:21;;;;;;;;;;;;;;;;;;5094668;28;20050;-68
2023/04/24 16:22:47;;;;;;;;;;;;;;;;;;5094926;28;19955;-68
2023/04/24 16:25:13;;;;;;;;;;;;;;;;;;5094500;28;19975;-68
2023/04/24 16:27:39;;;;;;;;;;;;;;;;;;5094823;28;19955;-68
2023/04/24 16:30:05;;;;;;;;;;;;;;;;;;5094460;28;19971;-68
2023/04/24 16:32:31;;;;;;;;;;;;;;;;;;5094763;28;20096;-68
2023/04/24 16:34:57;;;;;;;;;;;;;;;;;;5094392;28;19955;-68
2023/04/24 16:37:23;;;;;;;;;;;;;;;;;;5094691;28;19982;-68